createdAt,value
2018-07-13T00:01:57.348Z,14.8
2018-07-13T00:06:59.522Z,14.9
2018-07-13T00:12:01.836Z,14.9
2018-07-13T00:17:04.040Z,14.9
2018-07-13T00:22:06.380Z,14.9
2018-07-13T00:27:08.625Z,14.8
2018-07-13T00:32:11.083Z,14.8
2018-07-13T00:37:13.200Z,14.8
2018-07-13T00:42:15.551Z,14.7
2018-07-13T00:47:17.962Z,14.7
2018-07-13T00:52:20.154Z,14.6
2018-07-13T00:57:22.386Z,14.5
2018-07-13T01:02:24.687Z,14.4
2018-07-13T01:07:27.089Z,14.4
2018-07-13T01:12:29.327Z,14.3
2018-07-13T01:17:31.573Z,14.2
2018-07-13T01:22:33.840Z,14
2018-07-13T01:27:36.288Z,14
2018-07-13T01:32:38.572Z,13.9
2018-07-13T01:37:40.876Z,13.8
2018-07-13T01:42:43.031Z,13.7
2018-07-13T01:47:45.474Z,13.6
2018-07-13T01:52:47.620Z,13.6
2018-07-13T01:57:49.971Z,13.5
2018-07-13T02:02:52.418Z,13.4
2018-07-13T02:07:54.453Z,13.3
2018-07-13T02:12:56.898Z,13.2
2018-07-13T02:17:59.256Z,13.1
2018-07-13T02:23:01.446Z,13.1
2018-07-13T02:28:04.017Z,13.1
2018-07-13T02:33:06.018Z,13
2018-07-13T02:38:08.366Z,13
2018-07-13T02:43:10.638Z,12.9
2018-07-13T02:48:12.893Z,12.9
2018-07-13T02:53:15.389Z,12.9
2018-07-13T02:58:17.550Z,12.9
2018-07-13T03:03:19.767Z,13
2018-07-13T03:08:21.996Z,13
2018-07-13T03:13:24.425Z,13
2018-07-13T03:18:26.639Z,13.1
2018-07-13T03:23:28.928Z,13.1
2018-07-13T03:28:31.269Z,13.2
2018-07-13T03:33:33.690Z,13.3
2018-07-13T03:38:35.802Z,13.3
2018-07-13T03:43:38.145Z,13.3
2018-07-13T03:48:40.522Z,13.4
2018-07-13T03:53:42.679Z,13.5
2018-07-13T03:58:44.946Z,13.6
2018-07-13T04:03:47.584Z,13.6
2018-07-13T04:08:49.586Z,13.7
2018-07-13T04:13:51.864Z,13.7
2018-07-13T04:18:54.200Z,13.8
2018-07-13T04:23:56.641Z,13.9
2018-07-13T04:28:58.783Z,14
2018-07-13T04:34:01.078Z,14.1
2018-07-13T04:39:03.378Z,14.1
2018-07-13T04:44:05.694Z,14.2
2018-07-13T04:49:08.021Z,14.3
2018-07-13T04:54:10.269Z,14.4
2018-07-13T04:59:12.637Z,14.5
2018-07-13T05:04:14.892Z,14.6
2018-07-13T05:09:17.190Z,14.7
2018-07-13T05:14:19.424Z,14.8
2018-07-13T05:19:21.678Z,14.9
2018-07-13T05:24:24.095Z,15.1
2018-07-13T05:29:26.258Z,15.2
2018-07-13T05:34:28.738Z,15.3
2018-07-13T05:39:30.939Z,15.4
2018-07-13T05:44:33.258Z,15.6
2018-07-13T05:49:35.451Z,15.7
2018-07-13T05:54:37.870Z,15.8
2018-07-13T05:59:40.121Z,16
2018-07-13T06:04:42.276Z,16.1
2018-07-13T06:09:44.665Z,16.200001
2018-07-13T06:14:46.920Z,16.299999
2018-07-13T06:19:49.250Z,16.5
2018-07-13T06:24:51.482Z,16.700001
2018-07-13T06:29:53.756Z,16.9
2018-07-13T06:34:56.234Z,17
2018-07-13T06:39:58.462Z,17.299999
2018-07-13T06:45:00.750Z,17.700001
2018-07-13T06:50:03.036Z,17.799999
2018-07-13T06:55:05.435Z,18.1
2018-07-13T07:00:07.510Z,18.200001
2018-07-13T07:05:09.940Z,18.299999
2018-07-13T07:10:12.268Z,18.6
2018-07-13T07:15:14.629Z,18.9
2018-07-13T07:20:16.870Z,19.799999
2018-07-13T07:25:19.055Z,20.4
2018-07-13T07:30:21.352Z,20.200001
2018-07-13T07:35:23.563Z,19.700001
2018-07-13T07:40:26.206Z,20
2018-07-13T07:45:28.449Z,20.6
2018-07-13T07:50:30.540Z,20.9
2018-07-13T07:55:32.922Z,21.1
2018-07-13T08:00:35.164Z,21.6
2018-07-13T08:05:37.506Z,22.1
2018-07-13T08:10:39.881Z,22.5
2018-07-13T08:15:42.086Z,23.1
2018-07-13T08:20:44.452Z,23.700001
2018-07-13T08:25:46.762Z,23.799999
2018-07-13T08:30:48.911Z,23.6
2018-07-13T08:35:51.396Z,23.6
2018-07-13T08:40:53.609Z,23.6
2018-07-13T08:45:55.881Z,23.4
2018-07-13T08:50:58.050Z,23.1
2018-07-13T08:56:00.407Z,23.4
2018-07-13T09:01:02.794Z,23.4
2018-07-13T09:06:05.038Z,23.6
2018-07-13T09:11:07.248Z,24.1
2018-07-13T09:16:09.553Z,24.799999
2018-07-13T09:21:11.898Z,24.700001
2018-07-13T09:26:14.073Z,25.4
2018-07-13T09:36:18.764Z,27.299999
2018-07-13T09:41:21.118Z,27.1
2018-07-13T09:46:23.233Z,26.200001
2018-07-13T09:51:25.634Z,25.799999
2018-07-13T09:56:27.961Z,25.9
2018-07-13T10:01:30.220Z,25.9
2018-07-13T10:06:32.456Z,25.700001
2018-07-13T10:11:34.857Z,25.6
2018-07-13T10:16:37.140Z,27.1
2018-07-13T10:21:39.328Z,28.5
2018-07-13T10:26:41.608Z,28.5
2018-07-13T10:31:43.993Z,28.1
2018-07-13T10:36:46.349Z,28.299999
2018-07-13T10:41:48.552Z,29.9
2018-07-13T10:46:50.902Z,30.200001
2018-07-13T10:51:53.242Z,30.4
2018-07-13T10:56:55.413Z,31
2018-07-13T11:01:57.619Z,29.9
2018-07-13T11:07:00.088Z,29.6
2018-07-13T11:12:02.472Z,28.1
2018-07-13T11:17:04.825Z,27.299999
2018-07-13T11:22:06.936Z,26.700001
2018-07-13T11:27:09.368Z,26.700001
2018-07-13T11:32:11.527Z,26.799999
2018-07-13T11:37:14.040Z,26.1
2018-07-13T11:42:16.094Z,26.4
2018-07-13T11:47:18.355Z,26.700001
2018-07-13T11:52:20.737Z,26.6
2018-07-13T11:57:22.960Z,27.1
2018-07-13T12:02:25.228Z,29
2018-07-13T12:07:27.718Z,30
2018-07-13T12:12:29.864Z,30.200001
2018-07-13T12:17:32.376Z,30.299999
2018-07-13T12:22:34.448Z,30.299999
2018-07-13T12:27:36.888Z,31.299999
2018-07-13T12:32:38.999Z,31.9
2018-07-13T12:37:41.269Z,32
2018-07-13T12:42:43.529Z,31.9
2018-07-13T12:47:45.976Z,32.5
2018-07-13T12:52:48.207Z,32.700001
2018-07-13T12:57:50.567Z,32.700001
2018-07-13T13:02:52.907Z,31.799999
2018-07-13T13:07:55.152Z,31.1
2018-07-13T13:12:57.399Z,31.9
2018-07-13T13:17:59.780Z,32.799999
2018-07-13T13:23:02.083Z,33.5
2018-07-13T13:28:04.204Z,33.599998
2018-07-13T13:33:06.632Z,32.299999
2018-07-13T13:38:08.789Z,30.9
2018-07-13T13:43:11.224Z,30.1
2018-07-13T13:48:13.430Z,29.9
2018-07-13T13:53:15.704Z,30
2018-07-13T13:58:18.108Z,29.700001
2018-07-13T14:03:20.306Z,29.9
2018-07-13T14:08:22.584Z,29.9
2018-07-13T14:13:24.943Z,29.5
2018-07-13T14:18:27.279Z,29.4
2018-07-13T14:23:29.556Z,28.700001
2018-07-13T14:28:31.849Z,28.5
2018-07-13T14:33:34.125Z,29
2018-07-13T14:38:36.449Z,30.5
2018-07-13T14:43:38.677Z,31.6
2018-07-13T14:48:41.029Z,31.700001
2018-07-13T14:53:43.342Z,31.9
2018-07-13T14:58:45.717Z,32.099998
2018-07-13T15:03:47.890Z,32.099998
2018-07-13T15:08:50.131Z,31.299999
2018-07-13T15:13:52.517Z,30.9
2018-07-13T15:18:54.761Z,31.5
2018-07-13T15:23:57.060Z,31.5
2018-07-13T15:28:59.365Z,31.9
2018-07-13T15:34:01.642Z,31.799999
2018-07-13T15:39:03.914Z,31.6
2018-07-13T15:44:06.211Z,31.299999
2018-07-13T15:49:08.580Z,31.200001
2018-07-13T15:54:10.921Z,30.6
2018-07-13T15:59:13.026Z,29.799999
2018-07-13T16:04:15.356Z,29.6
2018-07-13T16:09:17.630Z,29.4
2018-07-13T16:14:20.025Z,28.9
2018-07-13T16:19:22.304Z,28.6
2018-07-13T16:24:24.550Z,28.5
2018-07-13T16:29:27.001Z,28.299999
2018-07-13T16:34:29.089Z,28
2018-07-13T16:39:31.373Z,27.799999
2018-07-13T16:44:33.843Z,27.700001
2018-07-13T16:54:42.270Z,27.5
2018-07-13T16:59:44.709Z,27
2018-07-13T17:04:47.031Z,26.799999
2018-07-13T17:14:51.472Z,26.4
2018-07-13T17:19:53.909Z,26.200001
2018-07-13T17:24:56.181Z,26
2018-07-13T17:29:58.339Z,25.799999
2018-07-13T17:35:00.817Z,25.5
2018-07-13T17:40:03.147Z,25.299999
2018-07-13T17:45:05.278Z,25
2018-07-13T17:50:07.554Z,24.799999
2018-07-13T17:55:09.942Z,24.700001
2018-07-13T18:00:12.093Z,24.6
2018-07-13T18:05:14.403Z,24.4
2018-07-13T18:10:16.829Z,24.200001
2018-07-13T18:15:19.141Z,23.9
2018-07-13T18:20:21.234Z,23.700001
2018-07-13T18:25:23.734Z,23.700001
2018-07-13T18:30:26.017Z,23.6
2018-07-13T18:35:28.301Z,23.5
2018-07-13T18:40:30.572Z,23.299999
2018-07-13T18:45:32.930Z,23.1
2018-07-13T18:50:35.240Z,22.9
2018-07-13T18:55:37.342Z,22.700001
2018-07-13T19:00:39.805Z,22.5
2018-07-13T19:05:42.046Z,22.200001
2018-07-13T19:10:44.368Z,22.1
2018-07-13T19:20:49.013Z,21.700001
2018-07-13T19:25:51.263Z,21.5
2018-07-13T19:30:53.573Z,21.4
2018-07-13T19:35:56.021Z,21.200001
2018-07-13T19:40:58.143Z,21
2018-07-13T19:46:00.332Z,20.799999
2018-07-13T19:51:02.590Z,20.6
2018-07-13T19:56:04.990Z,20.4
2018-07-13T20:01:07.336Z,20.200001
2018-07-13T20:06:09.429Z,20.1
2018-07-13T20:11:11.777Z,19.9
2018-07-13T20:16:14.180Z,19.799999
2018-07-13T20:21:16.429Z,19.6
2018-07-13T20:26:18.668Z,19.4
2018-07-13T20:31:20.884Z,19.299999
2018-07-13T20:36:23.305Z,19.1
2018-07-13T20:41:25.536Z,19
2018-07-13T20:46:28.000Z,18.799999
2018-07-13T20:51:30.069Z,18.700001
2018-07-13T20:56:32.521Z,18.6
2018-07-13T21:01:34.691Z,18.4
2018-07-13T21:06:37.080Z,18.299999
2018-07-13T21:11:39.385Z,18.200001
2018-07-13T21:16:41.610Z,18
2018-07-13T21:21:44.046Z,17.9
2018-07-13T21:31:58.514Z,17.700001
2018-07-13T21:37:00.777Z,17.5
2018-07-13T21:47:05.230Z,17.299999
2018-07-13T21:52:07.631Z,17.200001
2018-07-13T21:57:09.793Z,17
2018-07-13T22:02:12.149Z,16.9
2018-07-13T22:07:14.503Z,16.9
2018-07-13T22:12:16.749Z,16.799999
2018-07-13T22:17:19.049Z,16.700001
2018-07-13T22:22:21.402Z,16.700001
2018-07-13T22:27:23.636Z,16.700001
2018-07-13T22:32:25.946Z,16.6
2018-07-13T22:37:28.419Z,16.5
2018-07-13T22:42:30.708Z,16.4
2018-07-13T22:47:32.907Z,16.4
2018-07-13T22:52:35.121Z,16.299999
2018-07-13T22:57:37.477Z,16.200001
2018-07-13T23:02:39.836Z,16.200001
2018-07-13T23:07:42.057Z,16.1
2018-07-13T23:12:44.318Z,16.1
2018-07-13T23:17:46.537Z,16
2018-07-13T23:22:48.977Z,15.9
2018-07-13T23:27:51.217Z,15.8
2018-07-13T23:32:53.461Z,15.8
2018-07-13T23:37:55.750Z,15.7
2018-07-13T23:42:58.232Z,15.6
2018-07-13T23:48:00.332Z,15.5
2018-07-13T23:53:02.660Z,15.5
2018-07-13T23:58:04.883Z,15.3
